sensor_id;sensor_type;location;lat;lon;timestamp;P1;durP1;ratioP1;P2;durP2;ratioP2
20232;SDS011;37438;55.674;13.074;2022-12-29T00:00:25;6.78;;;4.28;;
20232;SDS011;37438;55.674;13.074;2022-12-29T00:03:30;6.47;;;3.70;;
20232;SDS011;37438;55.674;13.074;2022-12-29T00:06:34;8.25;;;4.65;;
20232;SDS011;37438;55.674;13.074;2022-12-29T00:09:39;4.25;;;2.95;;
20232;SDS011;37438;55.674;13.074;2022-12-29T00:12:43;10.50;;;3.70;;
20232;SDS011;37438;55.674;13.074;2022-12-29T00:16:06;5.65;;;2.92;;
20232;SDS011;37438;55.674;13.074;2022-12-29T00:22:35;9.23;;;3.78;;
20232;SDS011;37438;55.674;13.074;2022-12-29T00:26:02;8.38;;;3.65;;
20232;SDS011;37438;55.674;13.074;2022-12-29T00:29:26;8.82;;;3.20;;
20232;SDS011;37438;55.674;13.074;2022-12-29T00:32:49;8.40;;;3.40;;
20232;SDS011;37438;55.674;13.074;2022-12-29T00:39:21;6.88;;;3.33;;
20232;SDS011;37438;55.674;13.074;2022-12-29T00:42:44;5.13;;;2.53;;
20232;SDS011;37438;55.674;13.074;2022-12-29T00:46:07;9.68;;;3.45;;
20232;SDS011;37438;55.674;13.074;2022-12-29T00:49:15;10.77;;;4.15;;
20232;SDS011;37438;55.674;13.074;2022-12-29T00:52:35;6.07;;;2.75;;
20232;SDS011;37438;55.674;13.074;2022-12-29T00:55:39;9.70;;;3.63;;
20232;SDS011;37438;55.674;13.074;2022-12-29T00:58:44;10.43;;;3.72;;
20232;SDS011;37438;55.674;13.074;2022-12-29T01:01:49;11.48;;;3.63;;
20232;SDS011;37438;55.674;13.074;2022-12-29T01:04:55;15.90;;;4.35;;
20232;SDS011;37438;55.674;13.074;2022-12-29T01:08:00;9.55;;;3.42;;
20232;SDS011;37438;55.674;13.074;2022-12-29T01:11:06;10.45;;;4.20;;
20232;SDS011;37438;55.674;13.074;2022-12-29T01:14:13;6.80;;;4.13;;
20232;SDS011;37438;55.674;13.074;2022-12-29T01:17:18;9.10;;;3.65;;
20232;SDS011;37438;55.674;13.074;2022-12-29T01:20:22;9.20;;;3.58;;
20232;SDS011;37438;55.674;13.074;2022-12-29T01:23:27;4.35;;;2.83;;
20232;SDS011;37438;55.674;13.074;2022-12-29T01:26:32;9.05;;;4.07;;
20232;SDS011;37438;55.674;13.074;2022-12-29T01:29:36;10.43;;;3.53;;
20232;SDS011;37438;55.674;13.074;2022-12-29T01:35:46;9.18;;;3.22;;
20232;SDS011;37438;55.674;13.074;2022-12-29T01:38:50;5.72;;;3.13;;
20232;SDS011;37438;55.674;13.074;2022-12-29T01:41:57;8.82;;;3.00;;
20232;SDS011;37438;55.674;13.074;2022-12-29T01:45:02;9.87;;;3.23;;
20232;SDS011;37438;55.674;13.074;2022-12-29T01:48:12;8.50;;;2.80;;
20232;SDS011;37438;55.674;13.074;2022-12-29T01:51:17;5.55;;;3.15;;
20232;SDS011;37438;55.674;13.074;2022-12-29T01:54:25;6.10;;;3.13;;
20232;SDS011;37438;55.674;13.074;2022-12-29T01:57:35;5.97;;;3.10;;
20232;SDS011;37438;55.674;13.074;2022-12-29T02:00:43;7.85;;;2.92;;
20232;SDS011;37438;55.674;13.074;2022-12-29T02:03:48;5.93;;;2.53;;
20232;SDS011;37438;55.674;13.074;2022-12-29T02:06:55;10.30;;;2.72;;
20232;SDS011;37438;55.674;13.074;2022-12-29T02:10:03;4.15;;;2.13;;
20232;SDS011;37438;55.674;13.074;2022-12-29T02:13:10;7.70;;;2.50;;
20232;SDS011;37438;55.674;13.074;2022-12-29T02:16:25;4.80;;;2.23;;
20232;SDS011;37438;55.674;13.074;2022-12-29T02:30:45;2.17;;;1.80;;
20232;SDS011;37438;55.674;13.074;2022-12-29T02:34:10;3.28;;;1.80;;
20232;SDS011;37438;55.674;13.074;2022-12-29T02:37:55;3.60;;;2.05;;
20232;SDS011;37438;55.674;13.074;2022-12-29T02:41:27;7.32;;;2.75;;
20232;SDS011;37438;55.674;13.074;2022-12-29T02:44:36;2.28;;;2.00;;
20232;SDS011;37438;55.674;13.074;2022-12-29T02:54:08;6.47;;;3.53;;
20232;SDS011;37438;55.674;13.074;2022-12-29T02:57:35;4.43;;;2.63;;
20232;SDS011;37438;55.674;13.074;2022-12-29T03:00:41;6.13;;;3.00;;
20232;SDS011;37438;55.674;13.074;2022-12-29T03:10:47;4.25;;;2.75;;
20232;SDS011;37438;55.674;13.074;2022-12-29T03:14:08;4.50;;;2.38;;
20232;SDS011;37438;55.674;13.074;2022-12-29T03:17:54;7.75;;;3.25;;
20232;SDS011;37438;55.674;13.074;2022-12-29T03:24:55;10.05;;;4.35;;
20232;SDS011;37438;55.674;13.074;2022-12-29T03:28:22;9.45;;;3.53;;
20232;SDS011;37438;55.674;13.074;2022-12-29T03:31:29;4.55;;;3.90;;
20232;SDS011;37438;55.674;13.074;2022-12-29T03:34:34;9.68;;;4.20;;
20232;SDS011;37438;55.674;13.074;2022-12-29T03:37:41;6.40;;;4.22;;
20232;SDS011;37438;55.674;13.074;2022-12-29T03:40:55;10.35;;;5.57;;
20232;SDS011;37438;55.674;13.074;2022-12-29T03:44:05;10.93;;;6.35;;
20232;SDS011;37438;55.674;13.074;2022-12-29T03:47:11;9.02;;;5.28;;
20232;SDS011;37438;55.674;13.074;2022-12-29T03:50:19;9.82;;;5.95;;
20232;SDS011;37438;55.674;13.074;2022-12-29T03:53:23;13.35;;;6.20;;
20232;SDS011;37438;55.674;13.074;2022-12-29T03:56:27;9.77;;;8.40;;
20232;SDS011;37438;55.674;13.074;2022-12-29T03:59:32;10.50;;;7.60;;
20232;SDS011;37438;55.674;13.074;2022-12-29T04:02:37;19.40;;;5.72;;
20232;SDS011;37438;55.674;13.074;2022-12-29T04:08:47;11.88;;;5.65;;
20232;SDS011;37438;55.674;13.074;2022-12-29T04:11:53;12.88;;;5.18;;
20232;SDS011;37438;55.674;13.074;2022-12-29T04:14:57;14.13;;;7.35;;
20232;SDS011;37438;55.674;13.074;2022-12-29T04:18:02;9.88;;;6.18;;
20232;SDS011;37438;55.674;13.074;2022-12-29T04:21:06;18.58;;;6.18;;
20232;SDS011;37438;55.674;13.074;2022-12-29T04:24:14;11.07;;;5.13;;
20232;SDS011;37438;55.674;13.074;2022-12-29T04:27:21;8.10;;;5.38;;
20232;SDS011;37438;55.674;13.074;2022-12-29T04:30:54;15.30;;;6.65;;
20232;SDS011;37438;55.674;13.074;2022-12-29T04:34:01;18.77;;;6.32;;
20232;SDS011;37438;55.674;13.074;2022-12-29T04:37:05;11.63;;;7.25;;
20232;SDS011;37438;55.674;13.074;2022-12-29T04:40:10;11.68;;;6.40;;
20232;SDS011;37438;55.674;13.074;2022-12-29T04:46:40;9.02;;;6.32;;
20232;SDS011;37438;55.674;13.074;2022-12-29T04:49:47;10.40;;;6.38;;
20232;SDS011;37438;55.674;13.074;2022-12-29T04:53:05;10.13;;;6.60;;
20232;SDS011;37438;55.674;13.074;2022-12-29T04:56:10;14.50;;;6.82;;
20232;SDS011;37438;55.674;13.074;2022-12-29T04:59:14;11.15;;;7.25;;
20232;SDS011;37438;55.674;13.074;2022-12-29T05:02:23;7.25;;;5.63;;
20232;SDS011;37438;55.674;13.074;2022-12-29T05:05:28;13.23;;;5.50;;
20232;SDS011;37438;55.674;13.074;2022-12-29T05:08:33;8.98;;;4.97;;
20232;SDS011;37438;55.674;13.074;2022-12-29T05:11:39;6.65;;;4.75;;
20232;SDS011;37438;55.674;13.074;2022-12-29T05:14:45;7.78;;;5.53;;
20232;SDS011;37438;55.674;13.074;2022-12-29T05:17:49;10.93;;;5.45;;
20232;SDS011;37438;55.674;13.074;2022-12-29T05:24:00;8.70;;;5.75;;
20232;SDS011;37438;55.674;13.074;2022-12-29T05:27:05;9.18;;;4.47;;
20232;SDS011;37438;55.674;13.074;2022-12-29T05:30:30;10.57;;;4.80;;
20232;SDS011;37438;55.674;13.074;2022-12-29T05:33:34;6.85;;;4.50;;
20232;SDS011;37438;55.674;13.074;2022-12-29T05:36:39;11.27;;;5.22;;
20232;SDS011;37438;55.674;13.074;2022-12-29T05:39:46;7.40;;;5.47;;
20232;SDS011;37438;55.674;13.074;2022-12-29T05:46:16;12.65;;;4.57;;
20232;SDS011;37438;55.674;13.074;2022-12-29T05:49:48;7.43;;;5.18;;
20232;SDS011;37438;55.674;13.074;2022-12-29T05:53:07;11.00;;;5.82;;
20232;SDS011;37438;55.674;13.074;2022-12-29T05:56:14;7.65;;;5.57;;
20232;SDS011;37438;55.674;13.074;2022-12-29T05:59:18;10.60;;;6.22;;
20232;SDS011;37438;55.674;13.074;2022-12-29T06:02:24;14.70;;;6.85;;
20232;SDS011;37438;55.674;13.074;2022-12-29T06:08:34;10.82;;;5.80;;
20232;SDS011;37438;55.674;13.074;2022-12-29T06:14:44;7.43;;;5.10;;
20232;SDS011;37438;55.674;13.074;2022-12-29T06:17:49;13.10;;;5.45;;
20232;SDS011;37438;55.674;13.074;2022-12-29T06:20:54;10.10;;;6.30;;
20232;SDS011;37438;55.674;13.074;2022-12-29T06:24:03;14.23;;;5.20;;
20232;SDS011;37438;55.674;13.074;2022-12-29T06:27:10;12.80;;;5.65;;
20232;SDS011;37438;55.674;13.074;2022-12-29T06:33:21;10.15;;;5.60;;
20232;SDS011;37438;55.674;13.074;2022-12-29T06:36:25;8.38;;;4.80;;
20232;SDS011;37438;55.674;13.074;2022-12-29T06:39:30;10.40;;;5.43;;
20232;SDS011;37438;55.674;13.074;2022-12-29T06:42:42;14.20;;;5.00;;
20232;SDS011;37438;55.674;13.074;2022-12-29T06:46:10;9.40;;;3.97;;
20232;SDS011;37438;55.674;13.074;2022-12-29T06:49:15;9.60;;;5.18;;
20232;SDS011;37438;55.674;13.074;2022-12-29T06:55:24;10.88;;;5.43;;
20232;SDS011;37438;55.674;13.074;2022-12-29T06:58:28;7.68;;;5.50;;
20232;SDS011;37438;55.674;13.074;2022-12-29T07:01:33;8.68;;;4.88;;
20232;SDS011;37438;55.674;13.074;2022-12-29T07:04:38;11.70;;;4.20;;
20232;SDS011;37438;55.674;13.074;2022-12-29T07:07:43;6.22;;;4.10;;
20232;SDS011;37438;55.674;13.074;2022-12-29T07:10:47;4.40;;;3.97;;
20232;SDS011;37438;55.674;13.074;2022-12-29T07:13:52;5.55;;;3.58;;
20232;SDS011;37438;55.674;13.074;2022-12-29T07:16:56;7.97;;;3.65;;
20232;SDS011;37438;55.674;13.074;2022-12-29T07:23:07;7.13;;;3.60;;
20232;SDS011;37438;55.674;13.074;2022-12-29T07:26:13;7.85;;;4.13;;
20232;SDS011;37438;55.674;13.074;2022-12-29T07:29:19;4.55;;;2.90;;
20232;SDS011;37438;55.674;13.074;2022-12-29T07:32:23;5.10;;;3.22;;
20232;SDS011;37438;55.674;13.074;2022-12-29T07:35:28;8.85;;;4.00;;
20232;SDS011;37438;55.674;13.074;2022-12-29T07:38:32;8.38;;;3.33;;
20232;SDS011;37438;55.674;13.074;2022-12-29T07:41:37;5.13;;;3.25;;
20232;SDS011;37438;55.674;13.074;2022-12-29T07:44:41;8.02;;;4.25;;
20232;SDS011;37438;55.674;13.074;2022-12-29T07:47:52;9.35;;;3.58;;
20232;SDS011;37438;55.674;13.074;2022-12-29T07:50:57;7.40;;;2.88;;
20232;SDS011;37438;55.674;13.074;2022-12-29T07:54:01;8.27;;;3.28;;
20232;SDS011;37438;55.674;13.074;2022-12-29T07:57:06;8.45;;;2.47;;
20232;SDS011;37438;55.674;13.074;2022-12-29T08:00:10;7.20;;;3.10;;
20232;SDS011;37438;55.674;13.074;2022-12-29T08:03:16;5.80;;;2.80;;
20232;SDS011;37438;55.674;13.074;2022-12-29T08:06:20;9.55;;;3.45;;
20232;SDS011;37438;55.674;13.074;2022-12-29T08:09:27;10.00;;;3.67;;
20232;SDS011;37438;55.674;13.074;2022-12-29T08:12:32;7.15;;;3.38;;
20232;SDS011;37438;55.674;13.074;2022-12-29T08:15:36;6.50;;;2.95;;
20232;SDS011;37438;55.674;13.074;2022-12-29T08:18:41;10.48;;;4.57;;
20232;SDS011;37438;55.674;13.074;2022-12-29T08:21:46;5.82;;;3.28;;
20232;SDS011;37438;55.674;13.074;2022-12-29T08:24:51;12.68;;;3.80;;
20232;SDS011;37438;55.674;13.074;2022-12-29T08:27:55;13.75;;;3.97;;
20232;SDS011;37438;55.674;13.074;2022-12-29T08:31:00;10.70;;;3.78;;
20232;SDS011;37438;55.674;13.074;2022-12-29T08:34:06;8.77;;;4.35;;
20232;SDS011;37438;55.674;13.074;2022-12-29T08:37:11;10.43;;;4.63;;
20232;SDS011;37438;55.674;13.074;2022-12-29T08:40:15;9.93;;;3.75;;
20232;SDS011;37438;55.674;13.074;2022-12-29T08:43:20;9.50;;;3.67;;
20232;SDS011;37438;55.674;13.074;2022-12-29T08:46:24;15.40;;;3.22;;
20232;SDS011;37438;55.674;13.074;2022-12-29T08:49:29;10.43;;;4.25;;
20232;SDS011;37438;55.674;13.074;2022-12-29T08:52:33;16.45;;;4.78;;
20232;SDS011;37438;55.674;13.074;2022-12-29T08:55:37;9.57;;;4.22;;
20232;SDS011;37438;55.674;13.074;2022-12-29T08:58:42;7.63;;;4.57;;
20232;SDS011;37438;55.674;13.074;2022-12-29T09:01:47;12.63;;;4.15;;
20232;SDS011;37438;55.674;13.074;2022-12-29T09:04:51;8.82;;;3.38;;
20232;SDS011;37438;55.674;13.074;2022-12-29T09:07:56;9.68;;;4.30;;
20232;SDS011;37438;55.674;13.074;2022-12-29T09:11:07;6.10;;;3.17;;
20232;SDS011;37438;55.674;13.074;2022-12-29T09:14:17;15.60;;;3.90;;
20232;SDS011;37438;55.674;13.074;2022-12-29T09:17:22;13.13;;;3.67;;
20232;SDS011;37438;55.674;13.074;2022-12-29T09:20:46;12.65;;;3.53;;
20232;SDS011;37438;55.674;13.074;2022-12-29T09:23:50;8.73;;;2.92;;
20232;SDS011;37438;55.674;13.074;2022-12-29T09:26:55;14.77;;;3.80;;
20232;SDS011;37438;55.674;13.074;2022-12-29T09:29:59;14.47;;;3.20;;
20232;SDS011;37438;55.674;13.074;2022-12-29T09:33:03;8.68;;;3.17;;
20232;SDS011;37438;55.674;13.074;2022-12-29T09:36:08;13.40;;;4.75;;
20232;SDS011;37438;55.674;13.074;2022-12-29T09:39:12;7.78;;;3.35;;
20232;SDS011;37438;55.674;13.074;2022-12-29T09:42:34;9.67;;;3.00;;
20232;SDS011;37438;55.674;13.074;2022-12-29T09:45:45;10.23;;;2.83;;
20232;SDS011;37438;55.674;13.074;2022-12-29T09:49:05;8.10;;;2.63;;
20232;SDS011;37438;55.674;13.074;2022-12-29T09:52:14;6.38;;;2.45;;
20232;SDS011;37438;55.674;13.074;2022-12-29T09:55:24;5.68;;;2.40;;
20232;SDS011;37438;55.674;13.074;2022-12-29T09:58:37;9.43;;;3.03;;
20232;SDS011;37438;55.674;13.074;2022-12-29T10:02:00;8.98;;;2.42;;
20232;SDS011;37438;55.674;13.074;2022-12-29T10:05:25;6.03;;;2.50;;
20232;SDS011;37438;55.674;13.074;2022-12-29T10:08:39;2.95;;;2.15;;
20232;SDS011;37438;55.674;13.074;2022-12-29T10:22:50;3.65;;;1.90;;
20232;SDS011;37438;55.674;13.074;2022-12-29T10:25:59;4.05;;;1.92;;
20232;SDS011;37438;55.674;13.074;2022-12-29T10:29:11;3.55;;;1.58;;
20232;SDS011;37438;55.674;13.074;2022-12-29T10:32:36;6.10;;;1.80;;
20232;SDS011;37438;55.674;13.074;2022-12-29T10:35:59;9.57;;;1.75;;
20232;SDS011;37438;55.674;13.074;2022-12-29T10:39:32;8.48;;;2.20;;
20232;SDS011;37438;55.674;13.074;2022-12-29T10:42:45;5.97;;;2.35;;
20232;SDS011;37438;55.674;13.074;2022-12-29T10:45:56;4.50;;;1.70;;
20232;SDS011;37438;55.674;13.074;2022-12-29T10:49:04;4.13;;;1.77;;
20232;SDS011;37438;55.674;13.074;2022-12-29T10:52:10;6.18;;;1.58;;
20232;SDS011;37438;55.674;13.074;2022-12-29T10:55:19;3.53;;;1.02;;
20232;SDS011;37438;55.674;13.074;2022-12-29T10:58:39;5.78;;;1.38;;
20232;SDS011;37438;55.674;13.074;2022-12-29T11:09:15;12.50;;;2.15;;
20232;SDS011;37438;55.674;13.074;2022-12-29T11:12:29;6.18;;;1.83;;
20232;SDS011;37438;55.674;13.074;2022-12-29T11:15:44;4.00;;;1.00;;
20232;SDS011;37438;55.674;13.074;2022-12-29T11:18:53;12.25;;;1.70;;
20232;SDS011;37438;55.674;13.074;2022-12-29T11:22:14;14.57;;;1.58;;
20232;SDS011;37438;55.674;13.074;2022-12-29T11:25:28;4.07;;;1.10;;
20232;SDS011;37438;55.674;13.074;2022-12-29T11:28:33;3.45;;;1.10;;
20232;SDS011;37438;55.674;13.074;2022-12-29T11:31:41;3.33;;;0.90;;
20232;SDS011;37438;55.674;13.074;2022-12-29T11:34:46;6.03;;;1.60;;
20232;SDS011;37438;55.674;13.074;2022-12-29T11:37:53;8.20;;;2.45;;
20232;SDS011;37438;55.674;13.074;2022-12-29T11:41:01;7.47;;;1.52;;
20232;SDS011;37438;55.674;13.074;2022-12-29T11:44:07;9.27;;;2.00;;
20232;SDS011;37438;55.674;13.074;2022-12-29T11:47:21;8.57;;;1.60;;
20232;SDS011;37438;55.674;13.074;2022-12-29T11:56:43;12.77;;;1.83;;
20232;SDS011;37438;55.674;13.074;2022-12-29T11:59:53;9.17;;;1.40;;
20232;SDS011;37438;55.674;13.074;2022-12-29T12:03:11;5.05;;;1.55;;
20232;SDS011;37438;55.674;13.074;2022-12-29T12:06:21;5.15;;;1.48;;
20232;SDS011;37438;55.674;13.074;2022-12-29T12:09:32;3.75;;;0.80;;
20232;SDS011;37438;55.674;13.074;2022-12-29T12:12:46;8.95;;;2.13;;
20232;SDS011;37438;55.674;13.074;2022-12-29T12:15:54;5.30;;;1.00;;
20232;SDS011;37438;55.674;13.074;2022-12-29T12:19:12;11.00;;;1.98;;
20232;SDS011;37438;55.674;13.074;2022-12-29T12:22:26;8.60;;;1.73;;
20232;SDS011;37438;55.674;13.074;2022-12-29T12:25:39;16.95;;;1.77;;
20232;SDS011;37438;55.674;13.074;2022-12-29T12:28:52;7.85;;;1.70;;
20232;SDS011;37438;55.674;13.074;2022-12-29T12:32:09;7.07;;;1.38;;
20232;SDS011;37438;55.674;13.074;2022-12-29T12:41:59;6.45;;;1.08;;
20232;SDS011;37438;55.674;13.074;2022-12-29T12:52:17;9.02;;;1.95;;
20232;SDS011;37438;55.674;13.074;2022-12-29T12:55:46;10.45;;;2.17;;
20232;SDS011;37438;55.674;13.074;2022-12-29T13:09:41;5.55;;;1.50;;
20232;SDS011;37438;55.674;13.074;2022-12-29T13:19:41;14.80;;;2.70;;
20232;SDS011;37438;55.674;13.074;2022-12-29T13:23:23;8.80;;;2.42;;
20232;SDS011;37438;55.674;13.074;2022-12-29T13:26:29;9.85;;;3.33;;
20232;SDS011;37438;55.674;13.074;2022-12-29T13:29:47;5.40;;;1.15;;
20232;SDS011;37438;55.674;13.074;2022-12-29T13:33:06;7.17;;;1.70;;
20232;SDS011;37438;55.674;13.074;2022-12-29T13:36:26;5.10;;;1.90;;
20232;SDS011;37438;55.674;13.074;2022-12-29T13:39:59;7.25;;;1.27;;
20232;SDS011;37438;55.674;13.074;2022-12-29T13:43:07;8.07;;;1.73;;
20232;SDS011;37438;55.674;13.074;2022-12-29T13:46:18;15.18;;;1.85;;
20232;SDS011;37438;55.674;13.074;2022-12-29T13:49:29;8.45;;;1.73;;
20232;SDS011;37438;55.674;13.074;2022-12-29T14:06:02;13.43;;;2.38;;
20232;SDS011;37438;55.674;13.074;2022-12-29T14:09:42;12.02;;;2.50;;
20232;SDS011;37438;55.674;13.074;2022-12-29T14:13:01;11.38;;;1.58;;
20232;SDS011;37438;55.674;13.074;2022-12-29T14:16:25;12.45;;;1.88;;
20232;SDS011;37438;55.674;13.074;2022-12-29T14:19:35;9.68;;;3.05;;
20232;SDS011;37438;55.674;13.074;2022-12-29T14:23:02;4.88;;;1.98;;
20232;SDS011;37438;55.674;13.074;2022-12-29T14:33:00;8.95;;;2.17;;
20232;SDS011;37438;55.674;13.074;2022-12-29T14:36:25;9.20;;;1.95;;
20232;SDS011;37438;55.674;13.074;2022-12-29T14:42:44;7.35;;;1.77;;
20232;SDS011;37438;55.674;13.074;2022-12-29T14:45:59;5.80;;;1.35;;
20232;SDS011;37438;55.674;13.074;2022-12-29T14:49:08;9.20;;;2.13;;
20232;SDS011;37438;55.674;13.074;2022-12-29T14:52:20;10.63;;;1.90;;
20232;SDS011;37438;55.674;13.074;2022-12-29T14:58:43;10.38;;;1.27;;
20232;SDS011;37438;55.674;13.074;2022-12-29T15:01:52;14.55;;;2.70;;
20232;SDS011;37438;55.674;13.074;2022-12-29T15:04:59;5.25;;;1.17;;
20232;SDS011;37438;55.674;13.074;2022-12-29T15:08:05;11.35;;;1.92;;
20232;SDS011;37438;55.674;13.074;2022-12-29T15:11:12;8.88;;;1.83;;
20232;SDS011;37438;55.674;13.074;2022-12-29T15:14:36;8.63;;;1.52;;
20232;SDS011;37438;55.674;13.074;2022-12-29T15:17:42;8.60;;;1.52;;
20232;SDS011;37438;55.674;13.074;2022-12-29T15:20:49;11.10;;;1.90;;
20232;SDS011;37438;55.674;13.074;2022-12-29T15:23:56;12.18;;;1.85;;
20232;SDS011;37438;55.674;13.074;2022-12-29T15:27:03;13.20;;;2.30;;
20232;SDS011;37438;55.674;13.074;2022-12-29T15:30:12;21.50;;;2.53;;
20232;SDS011;37438;55.674;13.074;2022-12-29T15:33:22;10.48;;;2.80;;
20232;SDS011;37438;55.674;13.074;2022-12-29T15:36:34;11.23;;;2.58;;
20232;SDS011;37438;55.674;13.074;2022-12-29T15:39:42;6.75;;;2.53;;
20232;SDS011;37438;55.674;13.074;2022-12-29T15:42:52;6.85;;;1.60;;
20232;SDS011;37438;55.674;13.074;2022-12-29T15:46:20;8.13;;;2.08;;
20232;SDS011;37438;55.674;13.074;2022-12-29T15:49:25;11.80;;;2.97;;
20232;SDS011;37438;55.674;13.074;2022-12-29T15:52:35;15.65;;;2.85;;
20232;SDS011;37438;55.674;13.074;2022-12-29T15:55:43;16.63;;;3.63;;
20232;SDS011;37438;55.674;13.074;2022-12-29T15:58:51;15.45;;;2.92;;
20232;SDS011;37438;55.674;13.074;2022-12-29T16:01:56;8.70;;;2.50;;
20232;SDS011;37438;55.674;13.074;2022-12-29T16:05:02;12.40;;;2.90;;
20232;SDS011;37438;55.674;13.074;2022-12-29T16:08:31;13.55;;;2.22;;
20232;SDS011;37438;55.674;13.074;2022-12-29T16:12:02;12.00;;;2.30;;
20232;SDS011;37438;55.674;13.074;2022-12-29T16:15:12;15.23;;;2.22;;
20232;SDS011;37438;55.674;13.074;2022-12-29T16:18:24;13.02;;;1.70;;
20232;SDS011;37438;55.674;13.074;2022-12-29T16:21:33;16.58;;;3.30;;
20232;SDS011;37438;55.674;13.074;2022-12-29T16:24:39;14.20;;;2.25;;
20232;SDS011;37438;55.674;13.074;2022-12-29T16:30:59;12.63;;;1.83;;
20232;SDS011;37438;55.674;13.074;2022-12-29T16:37:32;13.57;;;2.30;;
20232;SDS011;37438;55.674;13.074;2022-12-29T16:40:56;8.63;;;1.75;;
20232;SDS011;37438;55.674;13.074;2022-12-29T16:44:11;13.15;;;2.50;;
20232;SDS011;37438;55.674;13.074;2022-12-29T16:47:19;11.38;;;3.38;;
20232;SDS011;37438;55.674;13.074;2022-12-29T16:50:24;15.88;;;3.17;;
20232;SDS011;37438;55.674;13.074;2022-12-29T16:53:32;11.45;;;3.38;;
20232;SDS011;37438;55.674;13.074;2022-12-29T16:56:42;15.63;;;2.63;;
20232;SDS011;37438;55.674;13.074;2022-12-29T16:59:48;16.33;;;3.25;;
20232;SDS011;37438;55.674;13.074;2022-12-29T17:02:57;22.95;;;3.33;;
20232;SDS011;37438;55.674;13.074;2022-12-29T17:06:04;31.25;;;3.55;;
20232;SDS011;37438;55.674;13.074;2022-12-29T17:09:27;15.57;;;3.17;;
20232;SDS011;37438;55.674;13.074;2022-12-29T17:12:33;20.70;;;3.83;;
20232;SDS011;37438;55.674;13.074;2022-12-29T17:15:38;17.55;;;3.03;;
20232;SDS011;37438;55.674;13.074;2022-12-29T17:18:42;22.20;;;3.78;;
20232;SDS011;37438;55.674;13.074;2022-12-29T17:21:47;21.48;;;2.75;;
20232;SDS011;37438;55.674;13.074;2022-12-29T17:24:52;23.92;;;3.97;;
20232;SDS011;37438;55.674;13.074;2022-12-29T17:28:12;27.10;;;4.45;;
20232;SDS011;37438;55.674;13.074;2022-12-29T17:31:26;23.92;;;4.55;;
20232;SDS011;37438;55.674;13.074;2022-12-29T17:34:30;24.40;;;3.88;;
20232;SDS011;37438;55.674;13.074;2022-12-29T17:37:36;22.10;;;3.75;;
20232;SDS011;37438;55.674;13.074;2022-12-29T17:40:41;26.38;;;3.58;;
20232;SDS011;37438;55.674;13.074;2022-12-29T17:43:45;21.25;;;3.88;;
20232;SDS011;37438;55.674;13.074;2022-12-29T17:46:50;18.15;;;4.35;;
20232;SDS011;37438;55.674;13.074;2022-12-29T17:49:54;26.63;;;5.60;;
20232;SDS011;37438;55.674;13.074;2022-12-29T17:53:00;17.33;;;2.92;;
20232;SDS011;37438;55.674;13.074;2022-12-29T17:56:07;24.38;;;5.00;;
20232;SDS011;37438;55.674;13.074;2022-12-29T17:59:13;27.98;;;5.55;;
20232;SDS011;37438;55.674;13.074;2022-12-29T18:05:33;28.42;;;5.10;;
20232;SDS011;37438;55.674;13.074;2022-12-29T18:08:38;36.28;;;6.80;;
20232;SDS011;37438;55.674;13.074;2022-12-29T18:11:43;42.00;;;5.07;;
20232;SDS011;37438;55.674;13.074;2022-12-29T18:18:05;30.80;;;5.82;;
20232;SDS011;37438;55.674;13.074;2022-12-29T18:21:18;34.95;;;4.68;;
20232;SDS011;37438;55.674;13.074;2022-12-29T18:24:24;41.53;;;5.22;;
20232;SDS011;37438;55.674;13.074;2022-12-29T18:27:31;36.35;;;5.50;;
20232;SDS011;37438;55.674;13.074;2022-12-29T18:30:35;28.40;;;3.47;;
20232;SDS011;37438;55.674;13.074;2022-12-29T18:33:41;29.50;;;5.28;;
20232;SDS011;37438;55.674;13.074;2022-12-29T18:36:45;20.55;;;5.70;;
20232;SDS011;37438;55.674;13.074;2022-12-29T18:39:50;27.70;;;3.83;;
20232;SDS011;37438;55.674;13.074;2022-12-29T18:42:54;33.17;;;6.10;;
20232;SDS011;37438;55.674;13.074;2022-12-29T18:45:58;39.97;;;7.82;;
20232;SDS011;37438;55.674;13.074;2022-12-29T18:49:03;41.78;;;5.95;;
20232;SDS011;37438;55.674;13.074;2022-12-29T18:52:10;27.15;;;4.65;;
20232;SDS011;37438;55.674;13.074;2022-12-29T18:55:17;29.30;;;5.63;;
20232;SDS011;37438;55.674;13.074;2022-12-29T18:58:24;31.85;;;6.47;;
20232;SDS011;37438;55.674;13.074;2022-12-29T19:01:36;35.10;;;5.35;;
20232;SDS011;37438;55.674;13.074;2022-12-29T19:04:41;31.90;;;5.22;;
20232;SDS011;37438;55.674;13.074;2022-12-29T19:07:46;38.67;;;6.47;;
20232;SDS011;37438;55.674;13.074;2022-12-29T19:10:50;25.48;;;3.65;;
20232;SDS011;37438;55.674;13.074;2022-12-29T19:13:54;32.67;;;7.00;;
20232;SDS011;37438;55.674;13.074;2022-12-29T19:16:59;31.38;;;6.15;;
20232;SDS011;37438;55.674;13.074;2022-12-29T19:20:04;25.52;;;4.30;;
20232;SDS011;37438;55.674;13.074;2022-12-29T19:23:14;20.15;;;4.32;;
20232;SDS011;37438;55.674;13.074;2022-12-29T19:26:27;25.27;;;6.20;;
20232;SDS011;37438;55.674;13.074;2022-12-29T19:29:34;30.05;;;4.78;;
20232;SDS011;37438;55.674;13.074;2022-12-29T19:32:39;34.13;;;5.57;;
20232;SDS011;37438;55.674;13.074;2022-12-29T19:35:43;31.00;;;6.18;;
20232;SDS011;37438;55.674;13.074;2022-12-29T19:38:48;35.00;;;5.13;;
20232;SDS011;37438;55.674;13.074;2022-12-29T19:41:52;33.63;;;4.97;;
20232;SDS011;37438;55.674;13.074;2022-12-29T19:45:05;36.22;;;5.43;;
20232;SDS011;37438;55.674;13.074;2022-12-29T19:48:14;25.52;;;5.13;;
20232;SDS011;37438;55.674;13.074;2022-12-29T19:51:21;38.60;;;5.72;;
20232;SDS011;37438;55.674;13.074;2022-12-29T19:54:26;28.95;;;4.32;;
20232;SDS011;37438;55.674;13.074;2022-12-29T19:57:30;31.63;;;5.68;;
20232;SDS011;37438;55.674;13.074;2022-12-29T20:00:36;39.92;;;5.68;;
20232;SDS011;37438;55.674;13.074;2022-12-29T20:03:43;24.35;;;4.35;;
20232;SDS011;37438;55.674;13.074;2022-12-29T20:06:47;21.00;;;3.80;;
20232;SDS011;37438;55.674;13.074;2022-12-29T20:09:51;29.77;;;4.77;;
20232;SDS011;37438;55.674;13.074;2022-12-29T20:12:55;23.33;;;4.43;;
20232;SDS011;37438;55.674;13.074;2022-12-29T20:16:01;26.13;;;5.00;;
20232;SDS011;37438;55.674;13.074;2022-12-29T20:19:08;28.02;;;4.13;;
20232;SDS011;37438;55.674;13.074;2022-12-29T20:22:13;29.05;;;4.78;;
20232;SDS011;37438;55.674;13.074;2022-12-29T20:25:18;21.05;;;2.25;;
20232;SDS011;37438;55.674;13.074;2022-12-29T20:28:42;35.17;;;5.63;;
20232;SDS011;37438;55.674;13.074;2022-12-29T20:31:47;27.88;;;5.15;;
20232;SDS011;37438;55.674;13.074;2022-12-29T20:34:52;21.38;;;3.65;;
20232;SDS011;37438;55.674;13.074;2022-12-29T20:37:57;22.10;;;3.10;;
20232;SDS011;37438;55.674;13.074;2022-12-29T20:41:02;17.30;;;3.00;;
20232;SDS011;37438;55.674;13.074;2022-12-29T20:44:07;29.17;;;4.97;;
20232;SDS011;37438;55.674;13.074;2022-12-29T20:47:12;20.02;;;3.25;;
20232;SDS011;37438;55.674;13.074;2022-12-29T20:50:17;29.27;;;3.63;;
20232;SDS011;37438;55.674;13.074;2022-12-29T20:53:21;20.73;;;3.97;;
20232;SDS011;37438;55.674;13.074;2022-12-29T20:56:26;23.97;;;3.23;;
20232;SDS011;37438;55.674;13.074;2022-12-29T20:59:33;21.75;;;3.53;;
20232;SDS011;37438;55.674;13.074;2022-12-29T21:02:37;25.88;;;5.13;;
20232;SDS011;37438;55.674;13.074;2022-12-29T21:05:42;14.20;;;2.45;;
20232;SDS011;37438;55.674;13.074;2022-12-29T21:08:49;18.67;;;2.65;;
20232;SDS011;37438;55.674;13.074;2022-12-29T21:11:56;22.35;;;3.60;;
20232;SDS011;37438;55.674;13.074;2022-12-29T21:15:00;14.40;;;2.60;;
20232;SDS011;37438;55.674;13.074;2022-12-29T21:18:05;13.80;;;2.00;;